Westview, KY

10:13 PM CDT on July 13, 2014 (GMT -0500)
Bowling Green-Warren County Regional (KBWG) Elev 548 ft | 36.96 °N, 86.42 °W | Change Station
Active Advisory: Special Statement

Current weather conditions updated 20 minutes ago

Clear
Clear
84 °F
Feels Like 88 °F
N
9
Wind Variable Wind from SW

Tomorrow is forecast to be Much Cooler than today. A few thunderstorms possible.

Today
High -- | Low -- °F
--% Chance of Precip.
Yesterday
High -- | Low -- °F
Precip. -- in
5:34 AM 8:07 PM
Waning Gibbous, 96% visible
Pressure 29.96 in
Visibility 10.0 miles
Clouds Clear
Heat Index 88 °F
Dew Point 69 °F
Humidity 61%
Rainfall 0.00 in
Snow Depth Not available.
UV 0 out of 12
Pollen 3.50 out of 12
Ozone Good
PM2.5 Moderate
Flu Activity Sporadic
METAR KBWG 140253Z AUTO 22008KT 10SM CLR 29/21 A2998 RMK AO2 SLP145 T02890206 53008

More Conditions Fewer Conditions

Pressure 29.96 in
Visibility 10.0 miles
Clouds Clear
Heat Index 88 °F
Dew Point 69 °F
Humidity 61%
Rainfall 0.00 in
Snow Depth Not available.
UV 0 out of 12
Pollen 3.50 out of 12
Ozone Good
PM2.5 Moderate
Flu Activity Sporadic
METAR KBWG 140253Z AUTO 22008KT 10SM CLR 29/21 A2998 RMK AO2 SLP145 T02890206 53008

More Conditions Fewer Conditions

10-Day Weather Forecast

Almanac

Astronomy

Jul. 13, 2014 Rise Set
Actual Time 5:34 AM CDT 8:07 PM CDT
Civil Twilight 5:04 AM CDT 8:38 PM CDT
Nautical Twilight 4:26 AM CDT 9:15 PM CDT
Astronomical Twilight 3:44 AM CDT 9:57 PM CDT
Moon 8:58 PM CDT (7/13) 7:01 AM CDT (7/13)
Length of Visible Light 15h 33m
Length of Day
14h 32m
Tomorrow will be 1m 10s shorter.
Waning Gibbous, 96% of the Moon is Illuminated
Today
Waning Gibbous
Jul 18
Last Quarter
Jul 26
New
Aug 3
First Quarter
Aug 10
Full

Today's Extremes

State Highs State Lows

Community

WunderPhotos

Upload Photos

1,733,516 photos uploaded!

Nearby

Air Quality

  Air Quality AQ Index Pollutant
Yesterday Good
PM10
Yesterday Moderate
OZONE
Current Moderate
PM2.5
Current Good
OZONE
Sunday Moderate
PM2.5
Sunday Good
OZONE
Monday Moderate
PM2.5
Monday Good
OZONE

Snow Depth

Station Depth Elevation
No new snow has been reported.

Earthquake Activity

City Distance Mag. Time & Date
No recent earthquake activity has been reported nearby.
Minimum magnitude displayed is 2.5.

Coastal Water Temperatures

Place Temperature
No Stations Reporting

Nearby Weather Stations

Station Location Temp. Heat Index Dew Point Humidity Wind Precip. Elev Updated Type
Eveleigh Road, Leitchfield, KY 84.2 °F 90 °F 72 °F 67% SW  at  7.6 mph 0.00 in / hr 670 ft 10:13 PM CDT Rapid Fire
Wandering Meadows, Vine Grove, KY 77.2 °F 79 °F 72 °F 83% SSE  at  4.2 mph - / hr 719 ft 11:03 PM EDT Normal
Lavista Estates, Rineyville, KY 81.5 °F 87 °F 73 °F 75% West  at  3.7 mph - / hr 817 ft 11:01 PM EDT Normal

Show More Stations Show Fewer Stations